Ely, MN

11:54 AM CDT del 24 Luglio 2014 (GMT -0500)
Ely Municipal (KELO) Alt. 1453 ft | 47.82 °N, 91.83 °W | Change Station
Avvisi attivi: Areal Flood Warning Notifica attiva: Public Information Statement

Current weather conditions updated 22 minutes ago

Clear
Sereno
70 °F
Sembra 70 °F
N
4
Vento Variabile Vento da SSE

Oggi si prevede un aumento della temperatura rispetto a ieri. Acquazzoni a tarda notte. tonight.

Oggi
Massima -- | Minima -- °F
--% Possibilità di precip.
Ieri
Massima -- | Minima -- °F
Precip. -- in
5:34 AM 8:52 PM
Luna calante, 5% visible
Pressione 30.11 in
Visibilità 10.0 miglia
Nuvole Sereno
Punto di rugiada 46 °F
Umidità 43%
Piovosità 0.00 in
Spessore del manto nevoso Non disponibile.
Raggi UV 9 fuori da 12
Polline 5.20 fuori da 12
Qualità dell'aria Non disponibile.
Flu Activity Non disponibile.
METAR KELO 241632Z AUTO 16003KT 10SM CLR 21/08 A3011 RMK AO2

More Conditions Fewer Conditions

Pressione 30.11 in
Visibilità 10.0 miglia
Nuvole Sereno
Punto di rugiada 46 °F
Umidità 43%
Piovosità 0.00 in
Spessore del manto nevoso Non disponibile.
Raggi UV 9 fuori da 12
Polline 5.20 fuori da 12
Qualità dell'aria Non disponibile.
Flu Activity Non disponibile.
METAR KELO 241632Z AUTO 16003KT 10SM CLR 21/08 A3011 RMK AO2

More Conditions Fewer Conditions

10-Day Weather Forecast

Almanac

Astronomia

Jul. 24, 2014 Alba Tramonto
Ora attuale 05:34 CDT 20:52 CDT
Crepuscolo civile 04:56 CDT 21:30 CDT
Crepuscolo nautico 04:07 CDT 22:19 CDT
Crepuscolo astronomico 03:03 CDT 23:22 CDT
Luna 03:44 CDT 19:05 CDT
Estensione della luce visibile 16h 33m
Lunghezza del giorno
15h 18m
Tomorrow will be 2m 23s shorter.
Luna calante, 5% of the Moon is Illuminated
Oggi
Luna calante
Lug 26
Nuovo
Ago 3
Primo quarto
Ago 10
Luna piena
Ago 17
Ultimo quarto

Gli estremi di oggi

State Highs State Lows

Community

WunderPhotos

Upload Photos

1,737,062 foto caricate!

Nearby

Profondità neve

Stazione Profondità Altitudine
Non sono state evidenziate nuove nevicate

Attività sismica

Città  Distanza Mag. Data & Ora
Non sono state riportate attività sismiche nelle vicinanze.
Minimo Magnitudo Mostrato è 2.5.

Temperature delle acque costiere

Località Temperatura
Nessun dato dalle stazioni

Stazioni meteo nelle vicinanze

Ubicazione della stazione Temp. Indice di calore Punto di rugiada Umidità Vento Precip. Alt. Aggiornato Tipo
RAWS ELY MN, Ely, MN 71 °F 77 °F 49 °F 45% ENE  a  3 mph 0.00 in / hr 1455 ft 11:04 AM CDT MADIS
HADS SOUTH FORK KAWISHIWI RIVER NEAR MN, Winton, MN 67 °F - - - Nord  a  - 0.00 in / hr 1419 ft 10:30 AM CDT MADIS
Near Bearhead Lake State Park - Tower, S, Ely, MN 70.0 °F - 53 °F 55% Ovest  a  0.0 mph 0.00 in / hr 1575 ft 11:54 AM CDT Sequenza Rapida
Snowbank Lake, Ely, MN 70.5 °F 77 °F 52 °F 51% Nord  a  0.0 mph 0.00 in / hr 1424 ft 11:51 AM CDT Normale

Show More Stations Show Fewer Stations